sensor_id;sensor_type;location;lat;lon;timestamp;temperature;humidity
34099;DHT22;20374;49.474;10.944;2023-04-06T00:02:14;-0.30;99.90
34099;DHT22;20374;49.474;10.944;2023-04-06T00:04:40;-0.30;99.90
34099;DHT22;20374;49.474;10.944;2023-04-06T00:07:06;-0.30;99.90
34099;DHT22;20374;49.474;10.944;2023-04-06T00:09:32;-0.40;99.90
34099;DHT22;20374;49.474;10.944;2023-04-06T00:11:58;-0.50;99.90
34099;DHT22;20374;49.474;10.944;2023-04-06T00:14:24;-0.30;99.90
34099;DHT22;20374;49.474;10.944;2023-04-06T00:16:50;-0.50;99.90
34099;DHT22;20374;49.474;10.944;2023-04-06T00:19:16;-0.70;99.90
34099;DHT22;20374;49.474;10.944;2023-04-06T00:21:42;-0.50;99.90
34099;DHT22;20374;49.474;10.944;2023-04-06T00:24:08;-0.60;99.90
34099;DHT22;20374;49.474;10.944;2023-04-06T00:26:34;-0.60;99.90
34099;DHT22;20374;49.474;10.944;2023-04-06T00:29:00;-0.60;99.90
34099;DHT22;20374;49.474;10.944;2023-04-06T00:31:26;-0.60;99.90
34099;DHT22;20374;49.474;10.944;2023-04-06T00:33:55;-0.70;99.90
34099;DHT22;20374;49.474;10.944;2023-04-06T00:36:21;-0.60;99.90
34099;DHT22;20374;49.474;10.944;2023-04-06T00:38:47;-0.70;99.90
34099;DHT22;20374;49.474;10.944;2023-04-06T00:41:13;-0.80;99.90
34099;DHT22;20374;49.474;10.944;2023-04-06T00:43:40;-0.80;99.90
34099;DHT22;20374;49.474;10.944;2023-04-06T00:46:06;-0.80;99.90
34099;DHT22;20374;49.474;10.944;2023-04-06T00:48:32;-0.90;99.90
34099;DHT22;20374;49.474;10.944;2023-04-06T00:51:00;-0.80;99.90
34099;DHT22;20374;49.474;10.944;2023-04-06T00:53:26;-0.80;99.90
34099;DHT22;20374;49.474;10.944;2023-04-06T00:55:52;-0.90;99.90
34099;DHT22;20374;49.474;10.944;2023-04-06T00:58:20;-1.00;99.90
34099;DHT22;20374;49.474;10.944;2023-04-06T01:00:51;-0.80;99.90
34099;DHT22;20374;49.474;10.944;2023-04-06T01:03:19;-1.10;99.90
34099;DHT22;20374;49.474;10.944;2023-04-06T01:05:46;-1.00;99.90
34099;DHT22;20374;49.474;10.944;2023-04-06T01:08:23;-1.00;99.90
34099;DHT22;20374;49.474;10.944;2023-04-06T01:10:54;-1.00;99.90
34099;DHT22;20374;49.474;10.944;2023-04-06T01:13:28;-1.10;99.90
34099;DHT22;20374;49.474;10.944;2023-04-06T01:16:00;-1.20;99.90
34099;DHT22;20374;49.474;10.944;2023-04-06T01:18:40;-1.00;99.90
34099;DHT22;20374;49.474;10.944;2023-04-06T01:21:24;-1.20;99.90
34099;DHT22;20374;49.474;10.944;2023-04-06T01:24:09;-1.30;99.90
34099;DHT22;20374;49.474;10.944;2023-04-06T01:26:51;-1.20;99.90
34099;DHT22;20374;49.474;10.944;2023-04-06T01:29:17;-1.20;99.90
34099;DHT22;20374;49.474;10.944;2023-04-06T01:31:43;-1.40;99.90
34099;DHT22;20374;49.474;10.944;2023-04-06T01:34:09;-1.20;99.90
34099;DHT22;20374;49.474;10.944;2023-04-06T01:36:36;-1.20;99.90
34099;DHT22;20374;49.474;10.944;2023-04-06T01:39:17;-1.30;99.90
34099;DHT22;20374;49.474;10.944;2023-04-06T01:41:43;-1.30;99.90
34099;DHT22;20374;49.474;10.944;2023-04-06T01:44:10;-1.30;99.90
34099;DHT22;20374;49.474;10.944;2023-04-06T01:46:36;-1.10;99.90
34099;DHT22;20374;49.474;10.944;2023-04-06T01:49:04;-1.30;99.90
34099;DHT22;20374;49.474;10.944;2023-04-06T01:51:34;-1.40;99.90
34099;DHT22;20374;49.474;10.944;2023-04-06T01:54:02;-1.50;99.90
34099;DHT22;20374;49.474;10.944;2023-04-06T01:56:46;-1.50;99.90
34099;DHT22;20374;49.474;10.944;2023-04-06T01:59:32;-1.50;99.90
34099;DHT22;20374;49.474;10.944;2023-04-06T02:02:01;-1.50;99.90
34099;DHT22;20374;49.474;10.944;2023-04-06T02:04:28;-1.50;99.90
34099;DHT22;20374;49.474;10.944;2023-04-06T02:07:05;-1.50;99.90
34099;DHT22;20374;49.474;10.944;2023-04-06T02:09:31;-1.40;99.90
34099;DHT22;20374;49.474;10.944;2023-04-06T02:11:58;-1.30;99.90
34099;DHT22;20374;49.474;10.944;2023-04-06T02:14:25;-1.40;99.90
34099;DHT22;20374;49.474;10.944;2023-04-06T02:16:54;-1.30;99.90
34099;DHT22;20374;49.474;10.944;2023-04-06T02:19:21;-1.50;99.90
34099;DHT22;20374;49.474;10.944;2023-04-06T02:21:54;-1.40;99.90
34099;DHT22;20374;49.474;10.944;2023-04-06T02:24:20;-1.20;99.90
34099;DHT22;20374;49.474;10.944;2023-04-06T02:26:46;-1.40;99.90
34099;DHT22;20374;49.474;10.944;2023-04-06T02:29:12;-1.40;99.90
34099;DHT22;20374;49.474;10.944;2023-04-06T02:31:38;-1.30;99.90
34099;DHT22;20374;49.474;10.944;2023-04-06T02:34:06;-1.30;99.90
34099;DHT22;20374;49.474;10.944;2023-04-06T02:36:33;-1.30;99.90
34099;DHT22;20374;49.474;10.944;2023-04-06T02:38:59;-1.20;99.90
34099;DHT22;20374;49.474;10.944;2023-04-06T02:41:26;-1.20;99.90
34099;DHT22;20374;49.474;10.944;2023-04-06T02:44:08;-1.30;99.90
34099;DHT22;20374;49.474;10.944;2023-04-06T02:46:41;-1.30;99.90
34099;DHT22;20374;49.474;10.944;2023-04-06T02:49:07;-1.30;99.90
34099;DHT22;20374;49.474;10.944;2023-04-06T02:51:34;-1.40;99.90
34099;DHT22;20374;49.474;10.944;2023-04-06T02:54:20;-1.40;99.90
34099;DHT22;20374;49.474;10.944;2023-04-06T02:56:46;-1.50;99.90
34099;DHT22;20374;49.474;10.944;2023-04-06T02:59:13;-1.50;99.90
34099;DHT22;20374;49.474;10.944;2023-04-06T03:01:44;-1.50;99.90
34099;DHT22;20374;49.474;10.944;2023-04-06T03:04:11;-1.50;99.90
34099;DHT22;20374;49.474;10.944;2023-04-06T03:06:38;-1.60;99.90
34099;DHT22;20374;49.474;10.944;2023-04-06T03:09:14;-1.50;99.90
34099;DHT22;20374;49.474;10.944;2023-04-06T03:11:42;-1.50;99.90
34099;DHT22;20374;49.474;10.944;2023-04-06T03:14:09;-1.60;99.90
34099;DHT22;20374;49.474;10.944;2023-04-06T03:16:35;-1.60;99.90
34099;DHT22;20374;49.474;10.944;2023-04-06T03:19:02;-1.60;99.90
34099;DHT22;20374;49.474;10.944;2023-04-06T03:21:32;-1.60;99.90
34099;DHT22;20374;49.474;10.944;2023-04-06T03:23:58;-1.60;99.90
34099;DHT22;20374;49.474;10.944;2023-04-06T03:26:29;-1.60;99.90
34099;DHT22;20374;49.474;10.944;2023-04-06T03:28:58;-1.60;99.90
34099;DHT22;20374;49.474;10.944;2023-04-06T03:31:32;-1.50;99.90
34099;DHT22;20374;49.474;10.944;2023-04-06T03:34:24;-1.60;99.90
34099;DHT22;20374;49.474;10.944;2023-04-06T03:36:50;-1.70;99.90
34099;DHT22;20374;49.474;10.944;2023-04-06T03:39:30;-1.50;99.90
34099;DHT22;20374;49.474;10.944;2023-04-06T03:41:58;-1.60;99.90
34099;DHT22;20374;49.474;10.944;2023-04-06T03:44:39;-1.70;99.90
34099;DHT22;20374;49.474;10.944;2023-04-06T03:47:26;-1.60;99.90
34099;DHT22;20374;49.474;10.944;2023-04-06T03:49:56;-1.70;99.90
34099;DHT22;20374;49.474;10.944;2023-04-06T03:52:30;-1.70;99.90
34099;DHT22;20374;49.474;10.944;2023-04-06T03:54:56;-1.80;99.90
34099;DHT22;20374;49.474;10.944;2023-04-06T03:57:32;-1.80;99.90
34099;DHT22;20374;49.474;10.944;2023-04-06T04:00:07;-1.80;99.90
34099;DHT22;20374;49.474;10.944;2023-04-06T04:02:40;-1.80;99.90
34099;DHT22;20374;49.474;10.944;2023-04-06T04:05:13;-1.90;99.90
34099;DHT22;20374;49.474;10.944;2023-04-06T04:07:40;-1.80;99.90
34099;DHT22;20374;49.474;10.944;2023-04-06T04:10:09;-1.80;99.90
34099;DHT22;20374;49.474;10.944;2023-04-06T04:12:35;-1.90;99.90
34099;DHT22;20374;49.474;10.944;2023-04-06T04:15:01;-1.80;99.90
34099;DHT22;20374;49.474;10.944;2023-04-06T04:17:28;-1.70;99.90
34099;DHT22;20374;49.474;10.944;2023-04-06T04:19:57;-1.90;99.90
34099;DHT22;20374;49.474;10.944;2023-04-06T04:22:38;-2.00;99.90
34099;DHT22;20374;49.474;10.944;2023-04-06T04:25:17;-1.90;99.90
34099;DHT22;20374;49.474;10.944;2023-04-06T04:27:55;-1.80;99.90
34099;DHT22;20374;49.474;10.944;2023-04-06T04:30:28;-1.80;99.90
34099;DHT22;20374;49.474;10.944;2023-04-06T04:33:00;-1.70;99.90
34099;DHT22;20374;49.474;10.944;2023-04-06T04:35:27;-1.70;99.90
34099;DHT22;20374;49.474;10.944;2023-04-06T04:37:59;-1.70;99.90
34099;DHT22;20374;49.474;10.944;2023-04-06T04:40:27;-1.70;99.90
34099;DHT22;20374;49.474;10.944;2023-04-06T04:43:10;-1.70;99.90
34099;DHT22;20374;49.474;10.944;2023-04-06T04:45:38;-1.80;99.90
34099;DHT22;20374;49.474;10.944;2023-04-06T04:48:25;-1.80;99.90
34099;DHT22;20374;49.474;10.944;2023-04-06T04:50:59;-1.80;99.90
34099;DHT22;20374;49.474;10.944;2023-04-06T04:53:31;-1.80;99.90
34099;DHT22;20374;49.474;10.944;2023-04-06T04:56:04;-1.80;99.90
34099;DHT22;20374;49.474;10.944;2023-04-06T04:58:32;-1.70;99.90
34099;DHT22;20374;49.474;10.944;2023-04-06T05:01:00;-1.50;99.90
34099;DHT22;20374;49.474;10.944;2023-04-06T05:03:27;-1.70;99.90
34099;DHT22;20374;49.474;10.944;2023-04-06T05:06:00;-1.60;99.90
34099;DHT22;20374;49.474;10.944;2023-04-06T05:08:30;-1.50;99.90
34099;DHT22;20374;49.474;10.944;2023-04-06T05:10:57;-1.60;99.90
34099;DHT22;20374;49.474;10.944;2023-04-06T05:13:24;-1.60;99.90
34099;DHT22;20374;49.474;10.944;2023-04-06T05:15:54;-1.60;99.90
34099;DHT22;20374;49.474;10.944;2023-04-06T05:18:27;-1.50;99.90
34099;DHT22;20374;49.474;10.944;2023-04-06T05:20:54;-1.40;99.90
34099;DHT22;20374;49.474;10.944;2023-04-06T05:23:26;-1.40;99.90
34099;DHT22;20374;49.474;10.944;2023-04-06T05:25:53;-1.30;99.90
34099;DHT22;20374;49.474;10.944;2023-04-06T05:28:22;-1.20;99.90
34099;DHT22;20374;49.474;10.944;2023-04-06T05:30:48;-1.10;99.90
34099;DHT22;20374;49.474;10.944;2023-04-06T05:33:15;-1.10;99.90
34099;DHT22;20374;49.474;10.944;2023-04-06T05:36:04;-1.00;99.90
34099;DHT22;20374;49.474;10.944;2023-04-06T05:38:34;-0.80;99.90
34099;DHT22;20374;49.474;10.944;2023-04-06T05:41:09;-0.40;99.90
34099;DHT22;20374;49.474;10.944;2023-04-06T05:43:36;0.60;99.90
34099;DHT22;20374;49.474;10.944;2023-04-06T05:46:02;1.50;99.90
34099;DHT22;20374;49.474;10.944;2023-04-06T05:48:28;2.00;99.90
34099;DHT22;20374;49.474;10.944;2023-04-06T05:50:54;2.20;99.20
34099;DHT22;20374;49.474;10.944;2023-04-06T05:53:27;2.40;98.60
34099;DHT22;20374;49.474;10.944;2023-04-06T05:56:00;2.60;98.00
34099;DHT22;20374;49.474;10.944;2023-04-06T05:58:26;2.70;97.30
34099;DHT22;20374;49.474;10.944;2023-04-06T06:00:58;3.00;96.80
34099;DHT22;20374;49.474;10.944;2023-04-06T06:03:25;3.10;96.50
34099;DHT22;20374;49.474;10.944;2023-04-06T06:05:59;3.30;95.30
34099;DHT22;20374;49.474;10.944;2023-04-06T06:08:30;3.70;94.60
34099;DHT22;20374;49.474;10.944;2023-04-06T06:10:58;4.20;93.00
34099;DHT22;20374;49.474;10.944;2023-04-06T06:13:25;4.90;91.80
34099;DHT22;20374;49.474;10.944;2023-04-06T06:15:52;5.60;89.40
34099;DHT22;20374;49.474;10.944;2023-04-06T06:18:19;6.00;87.10
34099;DHT22;20374;49.474;10.944;2023-04-06T06:20:47;6.60;82.20
34099;DHT22;20374;49.474;10.944;2023-04-06T06:23:14;6.90;80.20
34099;DHT22;20374;49.474;10.944;2023-04-06T06:25:40;6.90;77.80
34099;DHT22;20374;49.474;10.944;2023-04-06T06:28:07;7.00;76.70
34099;DHT22;20374;49.474;10.944;2023-04-06T06:30:33;7.10;75.60
34099;DHT22;20374;49.474;10.944;2023-04-06T06:32:59;7.30;75.40
34099;DHT22;20374;49.474;10.944;2023-04-06T06:35:30;7.60;74.70
34099;DHT22;20374;49.474;10.944;2023-04-06T06:37:57;8.10;73.10
34099;DHT22;20374;49.474;10.944;2023-04-06T06:40:26;8.20;70.70
34099;DHT22;20374;49.474;10.944;2023-04-06T06:42:54;8.30;71.40
34099;DHT22;20374;49.474;10.944;2023-04-06T06:45:26;8.60;69.20
34099;DHT22;20374;49.474;10.944;2023-04-06T06:47:52;8.40;68.10
34099;DHT22;20374;49.474;10.944;2023-04-06T06:50:18;8.20;69.40
34099;DHT22;20374;49.474;10.944;2023-04-06T06:52:44;8.00;70.30
34099;DHT22;20374;49.474;10.944;2023-04-06T06:55:10;7.80;69.40
34099;DHT22;20374;49.474;10.944;2023-04-06T06:57:38;7.60;71.20
34099;DHT22;20374;49.474;10.944;2023-04-06T07:00:06;7.70;70.60
34099;DHT22;20374;49.474;10.944;2023-04-06T07:02:38;7.80;70.40
34099;DHT22;20374;49.474;10.944;2023-04-06T07:05:09;8.10;70.90
34099;DHT22;20374;49.474;10.944;2023-04-06T07:07:36;8.80;68.40
34099;DHT22;20374;49.474;10.944;2023-04-06T07:10:02;9.50;66.80
34099;DHT22;20374;49.474;10.944;2023-04-06T07:12:28;10.30;62.80
34099;DHT22;20374;49.474;10.944;2023-04-06T07:14:54;10.50;61.20
34099;DHT22;20374;49.474;10.944;2023-04-06T07:17:20;10.60;59.90
34099;DHT22;20374;49.474;10.944;2023-04-06T07:19:46;10.20;60.20
34099;DHT22;20374;49.474;10.944;2023-04-06T07:22:12;10.00;60.00
34099;DHT22;20374;49.474;10.944;2023-04-06T07:24:38;10.20;59.50
34099;DHT22;20374;49.474;10.944;2023-04-06T07:27:04;10.30;59.20
34099;DHT22;20374;49.474;10.944;2023-04-06T07:29:30;10.30;59.50
34099;DHT22;20374;49.474;10.944;2023-04-06T07:31:56;10.50;60.20
34099;DHT22;20374;49.474;10.944;2023-04-06T07:34:23;11.20;58.80
34099;DHT22;20374;49.474;10.944;2023-04-06T07:36:49;11.80;56.90
34099;DHT22;20374;49.474;10.944;2023-04-06T07:39:15;11.70;57.10
34099;DHT22;20374;49.474;10.944;2023-04-06T07:41:41;11.50;57.40
34099;DHT22;20374;49.474;10.944;2023-04-06T07:44:07;11.30;57.10
34099;DHT22;20374;49.474;10.944;2023-04-06T07:46:33;11.30;58.60
34099;DHT22;20374;49.474;10.944;2023-04-06T07:49:00;11.50;56.70
34099;DHT22;20374;49.474;10.944;2023-04-06T07:51:29;11.30;57.90
34099;DHT22;20374;49.474;10.944;2023-04-06T07:53:56;10.90;57.80
34099;DHT22;20374;49.474;10.944;2023-04-06T07:56:22;10.80;58.40
34099;DHT22;20374;49.474;10.944;2023-04-06T07:58:48;11.20;57.80
34099;DHT22;20374;49.474;10.944;2023-04-06T08:01:14;11.60;57.80
34099;DHT22;20374;49.474;10.944;2023-04-06T08:03:40;12.00;56.90
34099;DHT22;20374;49.474;10.944;2023-04-06T08:06:06;12.50;56.10
34099;DHT22;20374;49.474;10.944;2023-04-06T08:08:32;13.10;55.40
34099;DHT22;20374;49.474;10.944;2023-04-06T08:10:58;14.00;56.00
34099;DHT22;20374;49.474;10.944;2023-04-06T08:13:24;14.60;54.10
34099;DHT22;20374;49.474;10.944;2023-04-06T08:15:50;14.70;52.70
34099;DHT22;20374;49.474;10.944;2023-04-06T08:18:16;14.10;53.20
34099;DHT22;20374;49.474;10.944;2023-04-06T08:20:41;13.90;53.20
34099;DHT22;20374;49.474;10.944;2023-04-06T08:23:07;13.90;52.90
34099;DHT22;20374;49.474;10.944;2023-04-06T08:25:36;14.40;53.10
34099;DHT22;20374;49.474;10.944;2023-04-06T08:28:03;14.70;53.60
34099;DHT22;20374;49.474;10.944;2023-04-06T08:30:29;14.90;52.00
34099;DHT22;20374;49.474;10.944;2023-04-06T08:32:55;14.90;51.50
34099;DHT22;20374;49.474;10.944;2023-04-06T08:35:21;14.90;51.50
34099;DHT22;20374;49.474;10.944;2023-04-06T08:37:47;14.70;50.80
34099;DHT22;20374;49.474;10.944;2023-04-06T08:40:13;14.20;52.00
34099;DHT22;20374;49.474;10.944;2023-04-06T08:42:40;13.90;52.00
34099;DHT22;20374;49.474;10.944;2023-04-06T08:45:10;13.80;52.60
34099;DHT22;20374;49.474;10.944;2023-04-06T08:47:36;14.30;52.10
34099;DHT22;20374;49.474;10.944;2023-04-06T08:50:04;14.40;50.90
34099;DHT22;20374;49.474;10.944;2023-04-06T08:52:32;14.50;51.40
34099;DHT22;20374;49.474;10.944;2023-04-06T08:54:59;14.70;50.80
34099;DHT22;20374;49.474;10.944;2023-04-06T08:57:26;14.30;50.90
34099;DHT22;20374;49.474;10.944;2023-04-06T08:59:52;13.60;51.90
34099;DHT22;20374;49.474;10.944;2023-04-06T09:02:20;13.10;52.80
34099;DHT22;20374;49.474;10.944;2023-04-06T09:04:49;13.50;54.30
34099;DHT22;20374;49.474;10.944;2023-04-06T09:07:18;13.80;53.60
34099;DHT22;20374;49.474;10.944;2023-04-06T09:09:44;14.20;51.40
34099;DHT22;20374;49.474;10.944;2023-04-06T09:12:25;14.40;50.40
34099;DHT22;20374;49.474;10.944;2023-04-06T09:14:52;15.20;50.10
34099;DHT22;20374;49.474;10.944;2023-04-06T09:17:22;15.90;49.20
34099;DHT22;20374;49.474;10.944;2023-04-06T09:19:49;15.80;47.10
34099;DHT22;20374;49.474;10.944;2023-04-06T09:22:15;15.40;47.30
34099;DHT22;20374;49.474;10.944;2023-04-06T09:24:52;14.50;48.10
34099;DHT22;20374;49.474;10.944;2023-04-06T09:27:38;13.70;49.20
34099;DHT22;20374;49.474;10.944;2023-04-06T09:32:31;13.30;49.40
34099;DHT22;20374;49.474;10.944;2023-04-06T09:35:10;13.40;49.80
34099;DHT22;20374;49.474;10.944;2023-04-06T09:37:36;13.10;50.00
34099;DHT22;20374;49.474;10.944;2023-04-06T09:40:05;12.90;49.30
34099;DHT22;20374;49.474;10.944;2023-04-06T09:42:31;13.10;50.10
34099;DHT22;20374;49.474;10.944;2023-04-06T09:44:57;13.30;49.10
34099;DHT22;20374;49.474;10.944;2023-04-06T09:47:24;13.00;49.70
34099;DHT22;20374;49.474;10.944;2023-04-06T09:49:57;12.80;50.20
34099;DHT22;20374;49.474;10.944;2023-04-06T09:52:26;12.60;49.20
34099;DHT22;20374;49.474;10.944;2023-04-06T09:54:55;12.40;49.70
34099;DHT22;20374;49.474;10.944;2023-04-06T09:57:44;12.00;49.70
34099;DHT22;20374;49.474;10.944;2023-04-06T10:00:13;11.60;50.40
34099;DHT22;20374;49.474;10.944;2023-04-06T10:08:13;11.00;51.80
34099;DHT22;20374;49.474;10.944;2023-04-06T10:10:41;11.40;51.90
34099;DHT22;20374;49.474;10.944;2023-04-06T10:13:11;12.70;51.20
34099;DHT22;20374;49.474;10.944;2023-04-06T10:15:38;14.00;49.30
34099;DHT22;20374;49.474;10.944;2023-04-06T10:18:04;14.90;47.00
34099;DHT22;20374;49.474;10.944;2023-04-06T10:26:02;16.70;44.60
34099;DHT22;20374;49.474;10.944;2023-04-06T10:28:33;16.60;45.30
34099;DHT22;20374;49.474;10.944;2023-04-06T10:31:02;16.90;44.30
34099;DHT22;20374;49.474;10.944;2023-04-06T10:33:29;17.80;44.00
34099;DHT22;20374;49.474;10.944;2023-04-06T10:35:56;19.00;43.70
34099;DHT22;20374;49.474;10.944;2023-04-06T10:38:36;19.70;43.70
34099;DHT22;20374;49.474;10.944;2023-04-06T10:41:06;19.60;42.00
34099;DHT22;20374;49.474;10.944;2023-04-06T10:43:37;19.90;41.20
34099;DHT22;20374;49.474;10.944;2023-04-06T10:46:05;19.50;41.70
34099;DHT22;20374;49.474;10.944;2023-04-06T10:51:17;19.80;40.50
34099;DHT22;20374;49.474;10.944;2023-04-06T10:53:45;19.60;41.50
34099;DHT22;20374;49.474;10.944;2023-04-06T10:56:13;19.20;39.70
34099;DHT22;20374;49.474;10.944;2023-04-06T10:58:50;18.50;40.00
34099;DHT22;20374;49.474;10.944;2023-04-06T11:01:18;18.30;41.00
34099;DHT22;20374;49.474;10.944;2023-04-06T11:03:49;18.20;41.30
34099;DHT22;20374;49.474;10.944;2023-04-06T11:06:22;17.80;39.90
34099;DHT22;20374;49.474;10.944;2023-04-06T11:08:48;17.20;40.80
34099;DHT22;20374;49.474;10.944;2023-04-06T11:11:18;17.70;42.90
34099;DHT22;20374;49.474;10.944;2023-04-06T11:14:00;18.40;42.70
34099;DHT22;20374;49.474;10.944;2023-04-06T11:16:29;19.10;40.80
34099;DHT22;20374;49.474;10.944;2023-04-06T11:21:39;18.70;40.70
34099;DHT22;20374;49.474;10.944;2023-04-06T11:26:40;18.00;39.50
34099;DHT22;20374;49.474;10.944;2023-04-06T11:29:06;18.30;39.20
34099;DHT22;20374;49.474;10.944;2023-04-06T11:32:20;19.30;39.00
34099;DHT22;20374;49.474;10.944;2023-04-06T11:34:28;18.70;38.90
34099;DHT22;20374;49.474;10.944;2023-04-06T11:36:59;19.50;39.60
34099;DHT22;20374;49.474;10.944;2023-04-06T11:39:26;19.20;39.30
34099;DHT22;20374;49.474;10.944;2023-04-06T11:41:54;18.70;39.30
34099;DHT22;20374;49.474;10.944;2023-04-06T11:47:03;18.70;39.50
34099;DHT22;20374;49.474;10.944;2023-04-06T11:49:30;18.80;40.30
34099;DHT22;20374;49.474;10.944;2023-04-06T11:51:57;18.90;42.60
34099;DHT22;20374;49.474;10.944;2023-04-06T11:54:34;18.90;40.60
34099;DHT22;20374;49.474;10.944;2023-04-06T11:57:01;18.10;40.60
34099;DHT22;20374;49.474;10.944;2023-04-06T11:59:27;17.10;40.20
34099;DHT22;20374;49.474;10.944;2023-04-06T12:01:53;16.50;40.00
34099;DHT22;20374;49.474;10.944;2023-04-06T12:04:20;16.60;41.30
34099;DHT22;20374;49.474;10.944;2023-04-06T12:06:46;17.50;40.90
34099;DHT22;20374;49.474;10.944;2023-04-06T12:09:12;18.30;40.90
34099;DHT22;20374;49.474;10.944;2023-04-06T12:11:38;18.50;40.40
34099;DHT22;20374;49.474;10.944;2023-04-06T12:14:04;18.50;38.70
34099;DHT22;20374;49.474;10.944;2023-04-06T12:16:31;18.00;39.10
34099;DHT22;20374;49.474;10.944;2023-04-06T12:18:57;18.40;39.50
34099;DHT22;20374;49.474;10.944;2023-04-06T12:21:23;19.10;40.30
34099;DHT22;20374;49.474;10.944;2023-04-06T12:23:49;19.30;38.80
34099;DHT22;20374;49.474;10.944;2023-04-06T12:26:14;19.80;40.80
34099;DHT22;20374;49.474;10.944;2023-04-06T12:28:40;20.10;40.50
34099;DHT22;20374;49.474;10.944;2023-04-06T12:31:13;21.10;38.40
34099;DHT22;20374;49.474;10.944;2023-04-06T12:33:39;21.70;37.00
34099;DHT22;20374;49.474;10.944;2023-04-06T12:36:11;22.20;39.50
34099;DHT22;20374;49.474;10.944;2023-04-06T12:38:38;21.50;37.30
34099;DHT22;20374;49.474;10.944;2023-04-06T12:41:05;21.40;36.90
34099;DHT22;20374;49.474;10.944;2023-04-06T12:43:31;21.70;37.20
34099;DHT22;20374;49.474;10.944;2023-04-06T12:45:57;21.60;37.50
34099;DHT22;20374;49.474;10.944;2023-04-06T12:48:23;20.60;37.90
34099;DHT22;20374;49.474;10.944;2023-04-06T12:51:00;19.80;37.40
34099;DHT22;20374;49.474;10.944;2023-04-06T12:53:26;19.20;39.50
34099;DHT22;20374;49.474;10.944;2023-04-06T12:55:54;19.10;37.90
34099;DHT22;20374;49.474;10.944;2023-04-06T12:58:21;19.40;39.40
34099;DHT22;20374;49.474;10.944;2023-04-06T13:00:51;19.90;36.60
34099;DHT22;20374;49.474;10.944;2023-04-06T13:03:18;19.90;38.80
34099;DHT22;20374;49.474;10.944;2023-04-06T13:05:51;20.50;39.90
34099;DHT22;20374;49.474;10.944;2023-04-06T13:08:18;20.80;39.50
34099;DHT22;20374;49.474;10.944;2023-04-06T13:10:46;20.60;39.50
34099;DHT22;20374;49.474;10.944;2023-04-06T13:13:15;20.50;38.80
34099;DHT22;20374;49.474;10.944;2023-04-06T13:15:41;20.40;38.30
34099;DHT22;20374;49.474;10.944;2023-04-06T13:18:08;20.00;36.00
34099;DHT22;20374;49.474;10.944;2023-04-06T13:20:34;19.60;35.60
34099;DHT22;20374;49.474;10.944;2023-04-06T13:23:01;19.60;36.60
34099;DHT22;20374;49.474;10.944;2023-04-06T13:25:27;19.90;37.00
34099;DHT22;20374;49.474;10.944;2023-04-06T13:27:57;20.70;37.90
34099;DHT22;20374;49.474;10.944;2023-04-06T13:30:23;20.70;35.90
34099;DHT22;20374;49.474;10.944;2023-04-06T13:32:49;20.50;37.10
34099;DHT22;20374;49.474;10.944;2023-04-06T13:35:15;20.60;38.20
34099;DHT22;20374;49.474;10.944;2023-04-06T13:37:42;20.80;36.80
34099;DHT22;20374;49.474;10.944;2023-04-06T13:40:08;21.20;36.60
34099;DHT22;20374;49.474;10.944;2023-04-06T13:42:34;20.80;35.70
34099;DHT22;20374;49.474;10.944;2023-04-06T13:45:01;20.50;34.90
34099;DHT22;20374;49.474;10.944;2023-04-06T13:47:27;19.90;33.80
34099;DHT22;20374;49.474;10.944;2023-04-06T13:49:53;19.50;34.20
34099;DHT22;20374;49.474;10.944;2023-04-06T13:52:20;19.00;34.40
34099;DHT22;20374;49.474;10.944;2023-04-06T13:54:46;18.40;34.10
34099;DHT22;20374;49.474;10.944;2023-04-06T13:57:12;18.70;35.10
34099;DHT22;20374;49.474;10.944;2023-04-06T13:59:39;19.10;35.50
34099;DHT22;20374;49.474;10.944;2023-04-06T14:02:07;19.60;34.40
34099;DHT22;20374;49.474;10.944;2023-04-06T14:04:33;20.30;34.80
34099;DHT22;20374;49.474;10.944;2023-04-06T14:07:01;20.60;35.40
34099;DHT22;20374;49.474;10.944;2023-04-06T14:09:28;20.70;36.40
34099;DHT22;20374;49.474;10.944;2023-04-06T14:11:55;21.00;37.80
34099;DHT22;20374;49.474;10.944;2023-04-06T14:14:22;20.70;37.70
34099;DHT22;20374;49.474;10.944;2023-04-06T14:16:48;20.40;37.80
34099;DHT22;20374;49.474;10.944;2023-04-06T14:19:16;19.80;36.60
34099;DHT22;20374;49.474;10.944;2023-04-06T14:21:44;18.70;38.20
34099;DHT22;20374;49.474;10.944;2023-04-06T14:24:10;18.50;39.60
34099;DHT22;20374;49.474;10.944;2023-04-06T14:26:37;19.20;37.10
34099;DHT22;20374;49.474;10.944;2023-04-06T14:29:04;19.60;39.10
34099;DHT22;20374;49.474;10.944;2023-04-06T14:31:31;19.60;37.70
34099;DHT22;20374;49.474;10.944;2023-04-06T14:33:58;19.10;38.00
34099;DHT22;20374;49.474;10.944;2023-04-06T14:36:24;18.10;39.80
34099;DHT22;20374;49.474;10.944;2023-04-06T14:38:52;17.70;39.40
34099;DHT22;20374;49.474;10.944;2023-04-06T14:41:20;17.70;39.80
34099;DHT22;20374;49.474;10.944;2023-04-06T14:43:47;17.70;40.10
34099;DHT22;20374;49.474;10.944;2023-04-06T14:46:13;18.00;40.00
34099;DHT22;20374;49.474;10.944;2023-04-06T14:48:39;18.70;40.10
34099;DHT22;20374;49.474;10.944;2023-04-06T14:51:06;18.70;38.60
34099;DHT22;20374;49.474;10.944;2023-04-06T14:53:32;18.50;40.00
34099;DHT22;20374;49.474;10.944;2023-04-06T14:55:58;18.40;39.60
34099;DHT22;20374;49.474;10.944;2023-04-06T14:58:25;18.40;39.70
34099;DHT22;20374;49.474;10.944;2023-04-06T15:01:01;18.50;39.60
34099;DHT22;20374;49.474;10.944;2023-04-06T15:03:28;18.30;38.00
34099;DHT22;20374;49.474;10.944;2023-04-06T15:05:55;18.50;37.50
34099;DHT22;20374;49.474;10.944;2023-04-06T15:08:22;18.50;37.30
34099;DHT22;20374;49.474;10.944;2023-04-06T15:10:48;18.00;37.10
34099;DHT22;20374;49.474;10.944;2023-04-06T15:13:14;17.00;39.30
34099;DHT22;20374;49.474;10.944;2023-04-06T15:15:41;16.30;40.00
34099;DHT22;20374;49.474;10.944;2023-04-06T15:18:08;15.70;40.70
34099;DHT22;20374;49.474;10.944;2023-04-06T15:20:34;15.10;41.40
34099;DHT22;20374;49.474;10.944;2023-04-06T15:23:01;14.60;42.50
34099;DHT22;20374;49.474;10.944;2023-04-06T15:25:27;14.20;42.60
34099;DHT22;20374;49.474;10.944;2023-04-06T15:27:56;14.00;42.70
34099;DHT22;20374;49.474;10.944;2023-04-06T15:30:22;14.10;43.30
34099;DHT22;20374;49.474;10.944;2023-04-06T15:32:54;14.30;40.90
34099;DHT22;20374;49.474;10.944;2023-04-06T15:35:21;14.60;41.60
34099;DHT22;20374;49.474;10.944;2023-04-06T15:37:47;14.50;40.70
34099;DHT22;20374;49.474;10.944;2023-04-06T15:40:13;14.50;42.80
34099;DHT22;20374;49.474;10.944;2023-04-06T15:42:41;14.40;43.40
34099;DHT22;20374;49.474;10.944;2023-04-06T15:45:09;14.40;42.40
34099;DHT22;20374;49.474;10.944;2023-04-06T15:47:40;14.50;43.00
34099;DHT22;20374;49.474;10.944;2023-04-06T15:50:06;14.50;42.70
34099;DHT22;20374;49.474;10.944;2023-04-06T15:52:33;14.50;42.20